CheckWX is a tool to help pilots better visualize weather data.  It is not intended as a substitute for an official pre-flight weather briefing.

05:08:40 UTC

LLBG METAR
Ben Gurion International Airport
Tel Aviv, Israel
Current

19 mins ago

LLBG 020450Z 26016G29KT CAVOK 27/12 Q1005 NOSIG RMK SCT140
Observed
Jun-2 @ 04:50 UTC
Wind
  • 260° at 16 KTS
  • Gusting to 29 KTS
Visibility
10,000+ meters
Flight Rules
VFR
Cloud Levels
  • Clear skies
Temperature
27°C / 81°F
Dewpoint
12°C / 54°F
Humidity
39%
Altimeter
29.68" Hg
Pressure
1004.92 hPa
Previous

49 mins ago

LLBG 020420Z VRB02KT CAVOK 25/12 Q1004 NOSIG RMK FEW140
Observed
Jun-2 @ 04:20 UTC
Wind
  • Variable at 2 KTS
Visibility
10,000+ meters
Flight Rules
VFR
Cloud Levels
  • Clear skies
Temperature
25°C / 77°F
Dewpoint
12°C / 54°F
Humidity
44%
Altimeter
29.65" Hg
Pressure
1003.92 hPa
Previous

1 hour ago

LLBG 020350Z VRB02KT CAVOK 22/12 Q1004 NOSIG RMK FEW140
Observed
Jun-2 @ 03:50 UTC
Wind
  • Variable at 2 KTS
Visibility
10,000+ meters
Flight Rules
VFR
Cloud Levels
  • Clear skies
Temperature
22°C / 72°F
Dewpoint
12°C / 54°F
Humidity
53%
Altimeter
29.65" Hg
Pressure
1003.92 hPa